createdAt,value
2022-08-05T00:00:17.632Z,9.35
2022-08-05T00:02:51.648Z,11.40
2022-08-05T00:06:02.133Z,9.60
2022-08-05T00:08:35.131Z,9.35
2022-08-05T00:11:00.324Z,9.07
2022-08-05T00:13:39.299Z,9.20
2022-08-05T00:16:12.275Z,8.65
2022-08-05T00:18:42.655Z,7.70
2022-08-05T00:21:14.268Z,8.20
2022-08-05T00:23:46.122Z,7.53
2022-08-05T00:26:22.500Z,7.25
2022-08-05T00:28:51.275Z,7.45
2022-08-05T00:31:41.405Z,7.03
2022-08-05T00:34:56.732Z,6.75
2022-08-05T00:37:11.069Z,6.50
2022-08-05T00:39:57.293Z,6.68
2022-08-05T00:42:35.574Z,7.60
2022-08-05T00:45:08.571Z,7.13
2022-08-05T00:47:56.763Z,7.35
2022-08-05T00:50:28.406Z,8.95
2022-08-05T00:52:56.249Z,9.38
2022-08-05T00:55:42.242Z,8.13
2022-08-05T00:58:13.682Z,10.35
2022-08-05T01:00:42.353Z,14.25
2022-08-05T01:03:10.586Z,7.30
2022-08-05T01:05:50.573Z,12.45
2022-08-05T01:08:41.991Z,19.85
2022-08-05T01:11:13.519Z,19.35
2022-08-05T01:13:59.174Z,22.35
2022-08-05T01:16:31.441Z,14.95
2022-08-05T01:19:08.113Z,23.85
2022-08-05T01:21:59.737Z,24.48
2022-08-05T01:24:41.393Z,17.20
2022-08-05T01:27:19.110Z,16.58
2022-08-05T01:29:59.362Z,14.82
2022-08-05T01:32:28.273Z,18.30
2022-08-05T01:34:59.478Z,21.90
2022-08-05T01:37:36.766Z,21.50
2022-08-05T01:40:13.276Z,22.02
2022-08-05T01:42:46.473Z,19.60
2022-08-05T01:45:16.588Z,27.25
2022-08-05T01:47:45.610Z,21.60
2022-08-05T01:50:18.706Z,28.35
2022-08-05T01:53:00.295Z,29.45
2022-08-05T01:55:29.908Z,22.65
2022-08-05T01:58:09.705Z,20.05
2022-08-05T02:00:46.626Z,19.95
2022-08-05T02:03:29.196Z,19.10
2022-08-05T02:05:59.912Z,24.88
2022-08-05T02:08:29.752Z,24.55
2022-08-05T02:11:04.442Z,19.67
2022-08-05T02:13:53.824Z,21.08
2022-08-05T02:16:29.113Z,18.92
2022-08-05T02:19:00.377Z,16.10
2022-08-05T02:21:31.609Z,18.00
2022-08-05T02:24:23.119Z,11.52
2022-08-05T02:26:54.658Z,9.75
2022-08-05T02:29:59.094Z,11.88
2022-08-05T02:32:23.636Z,9.10
2022-08-05T02:34:54.651Z,8.98
2022-08-05T02:37:23.509Z,9.43
2022-08-05T02:39:53.410Z,7.95
2022-08-05T02:42:25.931Z,7.50
2022-08-05T02:44:54.391Z,7.82
2022-08-05T02:47:24.360Z,9.48
2022-08-05T02:50:06.538Z,7.22
2022-08-05T02:52:35.692Z,6.97
2022-08-05T02:55:05.639Z,8.13
2022-08-05T02:58:11.319Z,7.45
2022-08-05T03:00:22.927Z,7.07
2022-08-05T03:02:54.924Z,7.57
2022-08-05T03:06:54.544Z,7.28
2022-08-05T03:08:12.061Z,8.30
2022-08-05T03:10:43.682Z,7.60
2022-08-05T03:13:51.866Z,7.72
2022-08-05T03:16:19.505Z,7.55
2022-08-05T03:18:49.800Z,8.40
2022-08-05T03:21:17.678Z,6.00
2022-08-05T03:23:45.828Z,6.57
2022-08-05T03:26:31.367Z,6.50
2022-08-05T03:29:00.084Z,7.65
2022-08-05T03:31:56.825Z,7.22
2022-08-05T03:34:19.036Z,7.55
2022-08-05T03:36:46.872Z,6.82
2022-08-05T03:39:20.303Z,7.63
2022-08-05T03:41:56.305Z,7.63
2022-08-05T03:44:24.272Z,8.75
2022-08-05T03:46:52.273Z,7.15
2022-08-05T03:49:24.071Z,6.68
2022-08-05T03:52:37.445Z,7.20
2022-08-05T03:55:51.842Z,7.18
2022-08-05T03:57:44.828Z,7.20
2022-08-05T04:00:16.434Z,6.82
2022-08-05T04:02:52.251Z,8.15
2022-08-05T04:05:34.064Z,7.05
2022-08-05T04:08:03.561Z,7.72
2022-08-05T04:10:38.236Z,7.75
2022-08-05T04:13:08.563Z,10.02
2022-08-05T04:15:36.868Z,7.82
2022-08-05T04:18:07.373Z,7.28
2022-08-05T04:20:41.214Z,7.68
2022-08-05T04:23:12.295Z,9.85
2022-08-05T04:26:00.390Z,7.93
2022-08-05T04:28:30.816Z,8.02
2022-08-05T04:31:00.860Z,7.68
2022-08-05T04:34:17.990Z,7.00
2022-08-05T04:36:44.747Z,8.23
2022-08-05T04:39:07.175Z,7.45
2022-08-05T04:41:37.782Z,6.43
2022-08-05T04:44:09.052Z,7.93
2022-08-05T04:46:38.229Z,7.70
2022-08-05T04:49:14.432Z,7.28
2022-08-05T04:51:44.879Z,8.13
2022-08-05T04:54:14.487Z,8.82
2022-08-05T04:56:42.242Z,7.90
2022-08-05T04:59:22.301Z,7.78
2022-08-05T05:02:35.058Z,7.25
2022-08-05T05:04:43.861Z,7.53
2022-08-05T05:07:15.872Z,7.72
2022-08-05T05:09:43.838Z,7.85
2022-08-05T05:12:12.285Z,7.60
2022-08-05T05:14:49.108Z,8.18
2022-08-05T05:17:23.502Z,8.32
2022-08-05T05:19:54.595Z,9.63
2022-08-05T05:22:26.592Z,9.77
2022-08-05T05:24:57.164Z,8.07
2022-08-05T05:27:41.527Z,8.20
2022-08-05T05:30:15.367Z,8.30
2022-08-05T05:32:56.768Z,8.60
2022-08-05T05:35:25.428Z,8.20
2022-08-05T05:37:59.975Z,8.13
2022-08-05T05:40:32.140Z,7.25
2022-08-05T05:43:00.327Z,7.75
2022-08-05T05:45:30.071Z,7.45
2022-08-05T05:48:06.795Z,8.43
2022-08-05T05:50:41.119Z,8.00
2022-08-05T05:53:21.385Z,8.15
2022-08-05T05:55:51.395Z,8.43
2022-08-05T05:58:32.046Z,7.72
2022-08-05T06:01:12.333Z,8.43
2022-08-05T06:04:01.022Z,9.50
2022-08-05T06:06:33.241Z,8.35
2022-08-05T06:09:04.991Z,7.35
2022-08-05T06:11:32.978Z,6.70
2022-08-05T06:14:00.991Z,8.10
2022-08-05T06:16:36.784Z,7.88
2022-08-05T06:19:07.862Z,7.82
2022-08-05T06:21:38.370Z,7.85
2022-08-05T06:24:11.355Z,7.85
2022-08-05T06:26:39.582Z,7.43
2022-08-05T06:29:45.398Z,8.80
2022-08-05T06:32:25.190Z,8.05
2022-08-05T06:34:56.868Z,8.30
2022-08-05T06:37:55.856Z,8.02
2022-08-05T06:40:20.779Z,16.35
2022-08-05T06:42:52.224Z,7.18
2022-08-05T06:45:44.565Z,5.93
2022-08-05T06:48:44.293Z,7.93
2022-08-05T06:50:57.237Z,7.68
2022-08-05T06:53:28.583Z,8.63
2022-08-05T06:55:58.244Z,9.38
2022-08-05T06:58:34.958Z,8.32
2022-08-05T07:01:06.598Z,8.73
2022-08-05T07:03:35.113Z,8.80
2022-08-05T07:06:05.799Z,9.00
2022-08-05T07:08:43.060Z,7.57
2022-08-05T07:11:17.289Z,8.02
2022-08-05T07:14:15.784Z,8.40
2022-08-05T07:18:01.835Z,8.38
2022-08-05T07:22:30.194Z,8.00
2022-08-05T07:24:59.816Z,5.55
2022-08-05T07:27:57.793Z,6.25
2022-08-05T07:30:32.590Z,6.05
2022-08-05T07:33:01.468Z,5.28
2022-08-05T07:36:01.483Z,6.82
2022-08-05T07:38:34.378Z,5.60
2022-08-05T07:42:08.072Z,7.07
2022-08-05T07:43:56.304Z,5.35
2022-08-05T07:46:26.338Z,5.80
2022-08-05T07:49:03.821Z,5.28
2022-08-05T07:51:40.238Z,6.45
2022-08-05T07:54:18.750Z,6.40
2022-08-05T07:57:01.386Z,7.45
2022-08-05T07:59:40.396Z,6.40
2022-08-05T08:02:17.060Z,5.78
2022-08-05T08:04:49.757Z,6.88
2022-08-05T08:07:22.666Z,6.80
2022-08-05T08:09:52.925Z,7.40
2022-08-05T08:12:35.134Z,6.18
2022-08-05T08:15:15.623Z,8.05
2022-08-05T08:17:52.360Z,9.35
2022-08-05T08:21:00.312Z,11.02
2022-08-05T08:23:11.814Z,15.07
2022-08-05T08:26:00.417Z,19.00
2022-08-05T08:28:36.610Z,12.80
2022-08-05T08:31:15.081Z,18.17
2022-08-05T08:33:46.910Z,22.58
2022-08-05T08:36:38.144Z,23.15
2022-08-05T08:39:15.648Z,15.75
2022-08-05T08:41:52.259Z,16.83
2022-08-05T08:45:18.731Z,11.55
2022-08-05T08:47:47.825Z,13.40
2022-08-05T08:50:31.618Z,10.32
2022-08-05T08:53:02.884Z,11.80
2022-08-05T08:56:05.070Z,11.02
2022-08-05T08:58:37.045Z,19.10
2022-08-05T09:01:16.727Z,17.88
2022-08-05T09:03:54.295Z,18.98
2022-08-05T09:06:28.554Z,15.00
2022-08-05T09:08:59.383Z,9.27
2022-08-05T09:11:51.910Z,7.90
2022-08-05T09:14:56.768Z,8.60
2022-08-05T09:17:04.508Z,7.95
2022-08-05T09:20:01.777Z,8.07
2022-08-05T09:22:31.615Z,5.97
2022-08-05T09:25:00.913Z,6.60
2022-08-05T09:28:03.830Z,5.72
2022-08-05T09:30:23.409Z,5.10
2022-08-05T09:32:52.912Z,5.25
2022-08-05T09:35:26.591Z,4.93
2022-08-05T09:38:12.655Z,4.25
2022-08-05T09:40:53.880Z,4.50
2022-08-05T09:43:41.870Z,4.88
2022-08-05T09:46:27.508Z,4.82
2022-08-05T09:49:07.805Z,5.70
2022-08-05T09:51:49.488Z,5.90
2022-08-05T09:54:29.081Z,9.60
2022-08-05T09:57:01.371Z,12.40
2022-08-05T09:59:35.126Z,25.40
2022-08-05T10:02:06.212Z,28.77
2022-08-05T10:04:40.907Z,19.60
2022-08-05T10:07:20.119Z,10.25
2022-08-05T10:10:13.815Z,8.38
2022-08-05T10:12:49.962Z,7.38
2022-08-05T10:15:26.115Z,7.78
2022-08-05T10:18:14.617Z,7.20
2022-08-05T10:20:48.290Z,5.78
2022-08-05T10:23:34.730Z,6.82
2022-08-05T10:26:14.019Z,5.32
2022-08-05T10:28:43.479Z,5.03
2022-08-05T10:32:48.022Z,5.20
2022-08-05T10:34:01.855Z,4.68
2022-08-05T10:36:30.825Z,5.05
2022-08-05T10:39:10.446Z,4.75
2022-08-05T10:41:47.998Z,4.32
2022-08-05T10:44:19.919Z,4.47
2022-08-05T10:46:50.642Z,5.10
2022-08-05T10:49:19.065Z,5.47
2022-08-05T10:52:00.282Z,5.00
2022-08-05T10:54:56.850Z,5.05
2022-08-05T10:57:32.410Z,6.15
2022-08-05T11:00:18.180Z,5.68
2022-08-05T11:03:23.915Z,5.03
2022-08-05T11:06:15.363Z,4.63
2022-08-05T11:09:16.769Z,4.90
2022-08-05T11:11:53.201Z,6.15
2022-08-05T11:14:49.398Z,6.45
2022-08-05T11:17:58.650Z,5.35
2022-08-05T11:20:44.535Z,6.53
2022-08-05T11:24:02.622Z,5.00
2022-08-05T11:26:33.418Z,5.78
2022-08-05T11:29:11.740Z,5.78
2022-08-05T11:31:58.704Z,5.90
2022-08-05T11:34:47.503Z,4.90
2022-08-05T11:38:37.398Z,6.03
2022-08-05T11:41:03.574Z,5.43
2022-08-05T11:44:04.368Z,5.03
2022-08-05T11:46:36.614Z,5.72
2022-08-05T11:49:08.025Z,4.78
2022-08-05T11:51:43.690Z,4.85
2022-08-05T11:54:14.094Z,5.90
2022-08-05T11:56:50.287Z,5.20
2022-08-05T11:59:21.972Z,5.70
2022-08-05T12:01:59.508Z,6.47
2022-08-05T12:04:29.581Z,6.22
2022-08-05T12:07:00.694Z,6.63
2022-08-05T12:09:53.007Z,6.95
2022-08-05T12:12:22.823Z,7.00
2022-08-05T12:14:53.581Z,7.63
2022-08-05T12:18:02.829Z,6.90
2022-08-05T12:20:17.647Z,6.47
2022-08-05T12:23:09.172Z,6.55
2022-08-05T12:25:50.444Z,6.72
2022-08-05T12:28:31.764Z,6.57
2022-08-05T12:31:02.352Z,6.68
2022-08-05T12:33:36.486Z,7.15
2022-08-05T12:36:08.448Z,7.05
2022-08-05T12:38:38.184Z,6.57
2022-08-05T12:41:13.083Z,8.32
2022-08-05T12:43:52.536Z,7.05
2022-08-05T12:46:28.087Z,10.80
2022-08-05T12:48:59.948Z,8.25
2022-08-05T12:52:12.864Z,10.63
2022-08-05T12:54:23.453Z,11.88
2022-08-05T12:56:55.676Z,11.82
2022-08-05T12:59:27.659Z,8.73
2022-08-05T13:02:14.005Z,11.18
2022-08-05T13:04:52.561Z,5.95
2022-08-05T13:07:55.712Z,5.40
2022-08-05T13:10:13.595Z,4.70
2022-08-05T13:12:50.682Z,4.43
2022-08-05T13:15:36.051Z,4.30
2022-08-05T13:18:19.779Z,3.83
2022-08-05T13:20:50.264Z,3.55
2022-08-05T13:23:22.529Z,3.50
2022-08-05T13:26:01.019Z,3.67
2022-08-05T13:28:29.675Z,3.72
2022-08-05T13:31:10.879Z,3.90
2022-08-05T13:34:23.963Z,4.20
2022-08-05T13:36:32.999Z,4.03
2022-08-05T13:39:01.071Z,3.88
2022-08-05T13:41:37.790Z,3.10
2022-08-05T13:44:06.136Z,2.90
2022-08-05T13:46:43.742Z,3.58
2022-08-05T13:49:21.937Z,3.00
2022-08-05T13:51:51.317Z,5.32
2022-08-05T13:54:24.933Z,4.10
2022-08-05T13:56:53.226Z,3.85
2022-08-05T13:59:24.626Z,4.40
2022-08-05T14:01:57.528Z,3.47
2022-08-05T14:04:49.817Z,4.22
2022-08-05T14:07:25.652Z,4.50
2022-08-05T14:10:10.492Z,4.20
2022-08-05T14:12:39.397Z,4.78
2022-08-05T14:16:08.955Z,4.60
2022-08-05T14:18:00.828Z,4.10
2022-08-05T14:20:29.420Z,3.88
2022-08-05T14:22:58.592Z,4.40
2022-08-05T14:25:30.094Z,4.13
2022-08-05T14:27:58.332Z,4.10
2022-08-05T14:30:27.800Z,4.70
2022-08-05T14:32:56.721Z,4.20
2022-08-05T14:35:36.866Z,5.40
2022-08-05T14:38:32.655Z,4.93
2022-08-05T14:41:06.440Z,5.45
2022-08-05T14:43:57.516Z,5.72
2022-08-05T14:46:23.448Z,4.90
2022-08-05T14:48:57.864Z,4.22
2022-08-05T14:51:30.808Z,4.65
2022-08-05T14:54:06.646Z,5.10
2022-08-05T14:56:48.354Z,5.85
2022-08-05T14:59:16.466Z,4.80
2022-08-05T15:01:48.573Z,4.80
2022-08-05T15:04:17.444Z,9.18
2022-08-05T15:06:49.923Z,5.40
2022-08-05T15:09:51.162Z,5.32
2022-08-05T15:12:08.909Z,5.13
2022-08-05T15:14:48.225Z,5.60
2022-08-05T15:17:47.673Z,10.95
2022-08-05T15:20:08.129Z,4.65
2022-08-05T15:22:37.806Z,5.40
2022-08-05T15:25:11.896Z,5.93
2022-08-05T15:27:42.982Z,4.93
2022-08-05T15:30:19.859Z,5.28
2022-08-05T15:32:47.639Z,4.57
2022-08-05T15:35:15.346Z,5.10
2022-08-05T15:38:34.570Z,5.50
2022-08-05T15:41:00.431Z,8.65
2022-08-05T15:43:21.224Z,5.80
2022-08-05T15:45:59.793Z,6.30
2022-08-05T15:48:29.688Z,5.90
2022-08-05T15:50:57.573Z,5.72
2022-08-05T15:53:26.393Z,5.45
2022-08-05T15:56:03.072Z,6.47
2022-08-05T15:58:35.421Z,5.43
2022-08-05T16:01:16.954Z,7.40
2022-08-05T16:03:48.606Z,8.65
2022-08-05T16:06:19.557Z,10.98
2022-08-05T16:08:51.148Z,11.75
2022-08-05T16:11:42.572Z,17.92
2022-08-05T16:14:10.390Z,14.70
2022-08-05T16:16:46.098Z,11.07
2022-08-05T16:19:25.434Z,15.32
2022-08-05T16:22:03.078Z,12.77
2022-08-05T16:24:39.555Z,15.95
2022-08-05T16:27:16.116Z,15.20
2022-08-05T16:29:50.319Z,10.18
2022-08-05T16:32:23.400Z,11.00
2022-08-05T16:34:57.219Z,17.17
2022-08-05T16:38:15.953Z,8.45
2022-08-05T16:40:26.551Z,18.88
2022-08-05T16:42:58.724Z,14.50
2022-08-05T16:46:04.549Z,13.60
2022-08-05T16:48:25.283Z,14.90
2022-08-05T16:50:54.224Z,16.25
2022-08-05T16:53:32.538Z,23.45
2022-08-05T16:56:10.465Z,16.77
2022-08-05T16:58:41.704Z,10.60
2022-08-05T17:01:10.534Z,10.60
2022-08-05T17:03:38.960Z,5.60
2022-08-05T17:06:07.258Z,8.43
2022-08-05T17:08:52.016Z,9.88
2022-08-05T17:11:23.447Z,4.95
2022-08-05T17:14:05.854Z,11.50
2022-08-05T17:16:36.713Z,5.28
2022-08-05T17:19:07.533Z,5.80
2022-08-05T17:21:37.540Z,6.80
2022-08-05T17:24:19.890Z,10.40
2022-08-05T17:26:56.848Z,7.05
2022-08-05T17:29:33.302Z,7.47
2022-08-05T17:32:11.381Z,5.38
2022-08-05T17:34:40.182Z,4.38
2022-08-05T17:37:29.457Z,6.03
2022-08-05T17:40:00.026Z,3.78
2022-08-05T17:42:31.888Z,6.18
2022-08-05T17:45:09.851Z,4.97
2022-08-05T17:47:51.341Z,3.90
2022-08-05T17:50:27.679Z,3.22
2022-08-05T17:52:58.667Z,3.22
2022-08-05T17:55:34.305Z,2.20
2022-08-05T17:58:06.978Z,2.33
2022-08-05T18:00:44.313Z,3.13
2022-08-05T18:03:13.088Z,2.88
2022-08-05T18:05:56.486Z,4.45
2022-08-05T18:08:29.726Z,3.65
2022-08-05T18:10:58.052Z,3.08
2022-08-05T18:13:25.865Z,2.78
2022-08-05T18:15:54.981Z,2.35
2022-08-05T18:18:22.780Z,3.72
2022-08-05T18:20:55.054Z,2.35
2022-08-05T18:23:22.943Z,2.55
2022-08-05T18:25:59.619Z,2.97
2022-08-05T18:28:28.420Z,2.92
2022-08-05T18:30:57.697Z,3.33
2022-08-05T18:33:25.498Z,3.63
2022-08-05T18:36:04.241Z,3.33
2022-08-05T18:38:35.875Z,2.88
2022-08-05T18:41:59.712Z,2.55
2022-08-05T18:43:51.618Z,2.85
2022-08-05T18:46:20.827Z,2.70
2022-08-05T18:48:51.834Z,3.28
2022-08-05T18:52:02.627Z,3.33
2022-08-05T18:54:28.326Z,3.63
2022-08-05T18:56:58.783Z,4.28
2022-08-05T18:59:43.620Z,3.50
2022-08-05T19:02:28.311Z,6.18
2022-08-05T19:05:02.114Z,8.10
2022-08-05T19:07:47.621Z,6.57
2022-08-05T19:10:15.600Z,6.88
2022-08-05T19:12:43.438Z,10.60
2022-08-05T19:15:58.138Z,13.13
2022-08-05T19:18:10.059Z,18.70
2022-08-05T19:20:41.617Z,18.63
2022-08-05T19:24:03.621Z,16.42
2022-08-05T19:26:02.952Z,18.20
2022-08-05T19:28:31.059Z,17.10
2022-08-05T19:31:04.854Z,14.90
2022-08-05T19:33:37.987Z,17.92
2022-08-05T19:36:09.659Z,17.05
2022-08-05T19:38:43.652Z,17.88
2022-08-05T19:41:11.810Z,21.67
2022-08-05T19:44:05.347Z,18.40
2022-08-05T19:46:31.051Z,19.95
2022-08-05T19:49:01.127Z,19.48
2022-08-05T19:52:04.324Z,17.88
2022-08-05T19:54:22.802Z,14.43
2022-08-05T19:56:59.464Z,11.07
2022-08-05T20:00:00.224Z,15.48
2022-08-05T20:02:17.675Z,10.73
2022-08-05T20:04:48.393Z,7.70
2022-08-05T20:07:46.646Z,4.35
2022-08-05T20:10:11.746Z,3.60
2022-08-05T20:12:47.790Z,3.38
2022-08-05T20:15:48.211Z,2.70
2022-08-05T20:18:10.430Z,3.08
2022-08-05T20:20:56.157Z,2.25
2022-08-05T20:23:40.306Z,2.47
2022-08-05T20:26:16.625Z,4.03
2022-08-05T20:28:47.891Z,2.88
2022-08-05T20:31:16.371Z,3.30
2022-08-05T20:33:45.249Z,3.03
2022-08-05T20:36:16.497Z,3.83
2022-08-05T20:38:53.255Z,2.85
2022-08-05T20:41:27.179Z,3.08
2022-08-05T20:44:17.138Z,3.75
2022-08-05T20:46:47.601Z,2.58
2022-08-05T20:49:18.434Z,2.40
2022-08-05T20:51:54.308Z,2.35
2022-08-05T20:54:22.706Z,2.47
2022-08-05T20:56:52.546Z,2.70
2022-08-05T20:59:26.968Z,2.80
2022-08-05T21:02:09.271Z,2.90
2022-08-05T21:04:39.132Z,2.63
2022-08-05T21:07:09.186Z,2.70
2022-08-05T21:09:37.224Z,3.65
2022-08-05T21:12:19.667Z,2.63
2022-08-05T21:14:47.665Z,2.70
2022-08-05T21:17:15.644Z,2.90
2022-08-05T21:19:48.052Z,5.13
2022-08-05T21:22:21.858Z,2.70
2022-08-05T21:24:51.446Z,2.78
2022-08-05T21:27:20.578Z,3.20
2022-08-05T21:29:52.730Z,3.10
2022-08-05T21:32:23.475Z,3.28
2022-08-05T21:35:08.713Z,3.10
2022-08-05T21:37:41.699Z,3.17
2022-08-05T21:40:16.447Z,3.42
2022-08-05T21:42:45.754Z,3.00
2022-08-05T21:45:25.206Z,3.30
2022-08-05T21:48:06.477Z,3.55
2022-08-05T21:50:36.777Z,3.78
2022-08-05T21:53:16.597Z,3.78
2022-08-05T21:56:06.162Z,3.60
2022-08-05T21:58:33.884Z,3.25
2022-08-05T22:01:02.013Z,4.28
2022-08-05T22:03:52.003Z,3.40
2022-08-05T22:06:22.944Z,3.47
2022-08-05T22:09:13.658Z,3.58
2022-08-05T22:11:47.023Z,3.72
2022-08-05T22:14:33.491Z,4.40
2022-08-05T22:17:06.989Z,3.72
2022-08-05T22:20:03.080Z,3.58
2022-08-05T22:22:28.211Z,4.35
2022-08-05T22:25:21.624Z,4.28
2022-08-05T22:28:09.108Z,4.13
2022-08-05T22:30:44.001Z,4.85
2022-08-05T22:33:55.428Z,4.88
2022-08-05T22:36:14.561Z,4.38
2022-08-05T22:38:43.416Z,4.38
2022-08-05T22:42:04.521Z,5.93
2022-08-05T22:44:06.136Z,5.43
2022-08-05T22:46:33.951Z,6.55
2022-08-05T22:49:23.566Z,4.75
2022-08-05T22:52:06.643Z,5.15
2022-08-05T22:54:36.147Z,5.47
2022-08-05T22:57:06.098Z,5.25
2022-08-05T22:59:45.996Z,4.63
2022-08-05T23:02:29.595Z,5.55
2022-08-05T23:05:01.517Z,5.30
2022-08-05T23:07:30.264Z,4.97
2022-08-05T23:10:01.433Z,4.95
2022-08-05T23:12:32.461Z,5.03
2022-08-05T23:15:03.380Z,5.03
2022-08-05T23:17:34.178Z,4.97
2022-08-05T23:20:10.457Z,5.20
2022-08-05T23:22:47.776Z,5.40
2022-08-05T23:25:17.716Z,6.00
2022-08-05T23:28:07.150Z,4.88
2022-08-05T23:30:40.140Z,5.68
2022-08-05T23:33:16.099Z,5.05
2022-08-05T23:35:50.224Z,4.53
2022-08-05T23:38:18.172Z,5.72
2022-08-05T23:40:49.901Z,5.97
2022-08-05T23:43:25.335Z,5.53
2022-08-05T23:46:19.839Z,5.18
2022-08-05T23:49:00.919Z,5.80
2022-08-05T23:51:54.152Z,5.45
2022-08-05T23:54:26.094Z,7.78
2022-08-05T23:57:04.190Z,5.65
